Dona Ana, NM

12:08 AM MST on February 24, 2017 (GMT -0700)
MD7419 | | Change Station
Active Advisory: Fire Weather Watch

Elev 3985 ft 32.38 °N, 106.80 °W | Updated 24 seconds ago

Clear
Clear
50.0 °F
Feels Like 50.0 °F
N
1.0
Wind Variable Wind from WNW
Gusts 12.0 mph

Today
High -- | Low -- °F
--% Chance of Precip.
Yesterday
High -- | Low -- °F
Precip. -- in
Pressure 29.86 in
Visibility 10.0 miles
Clouds Clear
Dew Point 16 °F
Humidity 25%
Rainfall 0.00 in
Snow Depth Not available.
6:40 AM 6:01 PM
Waning Crescent, 6% visible
METAR KLRU 240655Z AUTO 26016G24KT 10SM CLR 07/M13 A2986 RMK AO2 T00721130
Pressure 29.86 in
Visibility 10.0 miles
Clouds Clear
Dew Point 16 °F
Humidity 25%
Rainfall 0.00 in
Snow Depth Not available.
6:40 AM 6:01 PM
Waning Crescent, 6% visible
METAR KLRU 240655Z AUTO 26016G24KT 10SM CLR 07/M13 A2986 RMK AO2 T00721130

Get Your Daily Forecast Email!

Thanks for signing up!

Be on the lookout for a verification email in your inbox.

You'll start receiving the daily forecast at 8 AM.

×

10-Day Weather Forecast

Almanac

Astronomy

Feb. 24, 2017 Rise Set
Actual Time
Civil Twilight
Nautical Twilight
Astronomical Twilight
Moon
Length of Visible Light
Length of Day
Tomorrow will be .
, % of the Moon is Illuminated

Today's Extremes

State Highs State Lows

Community

WunderPhotos

Upload Photos

1,962,540 photos uploaded!

WunderBlog® & News

Nearby

Air Quality

  Air Quality AQ Index Pollutant
Not available.

Snow Depth

Station Depth Elevation

Earthquake Activity

City Distance Mag. Time & Date
Minimum magnitude displayed is 2.5.

Coastal Water Temperatures

Place Temperature

Stations

Nearby Weather Stations

Station Location Temp. Windchill Dew Point Humidity Wind Precip. Elev Updated Type
                   

Watches & Warnings

Fire Weather Watch
Issued: 8:15 PM MST Feb. 23, 2017 – National Weather Service

... Fire Weather Watch remains in effect Friday afternoon for low
relative humidities and winds over 20 mph for fire weather zones
055, 056, 111, and 112...

The National Weather Service in El Paso has issued a Fire Weather
Watch, which is in effect Friday afternoon.

* 20-foot wind... 20 to 25 mph with gusts to 35 mph.

* Humidity... 8 to 15 percent.

* Impacts... any fires that develop will likely spread rapidly.
Outdoor burning is not recommended.


Precautionary/preparedness actions...

A Fire Weather Watch means that critical fire weather conditions
are forecast to occur. Listen for later forecasts and possible
red flag warnings.